sensor_id;sensor_type;location;lat;lon;timestamp;P1;durP1;ratioP1;P2;durP2;ratioP2
67442;SDS011;54311;51.726;5.154;2023-05-29T00:01:18;14.32;;;6.50;;
67442;SDS011;54311;51.726;5.154;2023-05-29T00:03:43;19.40;;;6.22;;
67442;SDS011;54311;51.726;5.154;2023-05-29T00:06:09;18.63;;;6.72;;
67442;SDS011;54311;51.726;5.154;2023-05-29T00:08:35;15.80;;;6.65;;
67442;SDS011;54311;51.726;5.154;2023-05-29T00:11:00;20.83;;;6.93;;
67442;SDS011;54311;51.726;5.154;2023-05-29T00:13:26;23.70;;;6.80;;
67442;SDS011;54311;51.726;5.154;2023-05-29T00:15:51;17.85;;;6.22;;
67442;SDS011;54311;51.726;5.154;2023-05-29T00:18:17;14.85;;;5.57;;
67442;SDS011;54311;51.726;5.154;2023-05-29T00:20:42;19.60;;;6.47;;
67442;SDS011;54311;51.726;5.154;2023-05-29T00:23:07;19.35;;;7.10;;
67442;SDS011;54311;51.726;5.154;2023-05-29T00:25:34;25.88;;;6.50;;
67442;SDS011;54311;51.726;5.154;2023-05-29T00:28:00;20.15;;;6.57;;
67442;SDS011;54311;51.726;5.154;2023-05-29T00:30:25;27.80;;;8.52;;
67442;SDS011;54311;51.726;5.154;2023-05-29T00:32:51;19.85;;;6.28;;
67442;SDS011;54311;51.726;5.154;2023-05-29T00:35:17;18.10;;;6.75;;
67442;SDS011;54311;51.726;5.154;2023-05-29T00:37:42;20.17;;;5.88;;
67442;SDS011;54311;51.726;5.154;2023-05-29T00:40:08;19.38;;;6.25;;
67442;SDS011;54311;51.726;5.154;2023-05-29T00:42:34;16.65;;;5.85;;
67442;SDS011;54311;51.726;5.154;2023-05-29T00:44:59;20.48;;;7.30;;
67442;SDS011;54311;51.726;5.154;2023-05-29T00:47:25;21.15;;;7.25;;
67442;SDS011;54311;51.726;5.154;2023-05-29T00:49:51;16.75;;;6.43;;
67442;SDS011;54311;51.726;5.154;2023-05-29T00:52:17;23.23;;;6.32;;
67442;SDS011;54311;51.726;5.154;2023-05-29T00:54:43;27.45;;;6.72;;
67442;SDS011;54311;51.726;5.154;2023-05-29T00:57:09;21.67;;;5.93;;
67442;SDS011;54311;51.726;5.154;2023-05-29T00:59:35;22.98;;;6.72;;
67442;SDS011;54311;51.726;5.154;2023-05-29T01:02:01;25.13;;;7.10;;
67442;SDS011;54311;51.726;5.154;2023-05-29T01:04:27;21.33;;;6.80;;
67442;SDS011;54311;51.726;5.154;2023-05-29T01:06:53;21.00;;;7.13;;
67442;SDS011;54311;51.726;5.154;2023-05-29T01:09:18;20.02;;;6.95;;
67442;SDS011;54311;51.726;5.154;2023-05-29T01:11:54;27.50;;;6.78;;
67442;SDS011;54311;51.726;5.154;2023-05-29T01:17:11;25.20;;;7.70;;
67442;SDS011;54311;51.726;5.154;2023-05-29T01:28:30;16.95;;;6.68;;
67442;SDS011;54311;51.726;5.154;2023-05-29T01:30:58;22.88;;;6.88;;
67442;SDS011;54311;51.726;5.154;2023-05-29T01:33:26;29.85;;;7.43;;
67442;SDS011;54311;51.726;5.154;2023-05-29T01:35:51;20.25;;;6.22;;
67442;SDS011;54311;51.726;5.154;2023-05-29T01:38:17;21.17;;;6.90;;
67442;SDS011;54311;51.726;5.154;2023-05-29T01:40:42;21.98;;;6.15;;
67442;SDS011;54311;51.726;5.154;2023-05-29T01:43:07;17.08;;;6.00;;
67442;SDS011;54311;51.726;5.154;2023-05-29T01:45:33;14.25;;;6.50;;
67442;SDS011;54311;51.726;5.154;2023-05-29T01:47:58;25.83;;;6.72;;
67442;SDS011;54311;51.726;5.154;2023-05-29T01:50:23;20.95;;;6.43;;
67442;SDS011;54311;51.726;5.154;2023-05-29T01:52:49;22.98;;;6.68;;
67442;SDS011;54311;51.726;5.154;2023-05-29T01:55:15;20.42;;;6.22;;
67442;SDS011;54311;51.726;5.154;2023-05-29T01:57:40;19.75;;;6.50;;
67442;SDS011;54311;51.726;5.154;2023-05-29T02:00:06;17.65;;;6.25;;
67442;SDS011;54311;51.726;5.154;2023-05-29T02:02:39;23.83;;;7.00;;
67442;SDS011;54311;51.726;5.154;2023-05-29T02:05:05;19.92;;;7.18;;
67442;SDS011;54311;51.726;5.154;2023-05-29T02:07:31;20.25;;;6.78;;
67442;SDS011;54311;51.726;5.154;2023-05-29T02:09:57;27.90;;;7.00;;
67442;SDS011;54311;51.726;5.154;2023-05-29T02:12:22;21.60;;;6.88;;
67442;SDS011;54311;51.726;5.154;2023-05-29T02:14:47;29.80;;;7.50;;
67442;SDS011;54311;51.726;5.154;2023-05-29T02:17:13;21.90;;;6.63;;
67442;SDS011;54311;51.726;5.154;2023-05-29T02:19:39;22.10;;;7.07;;
67442;SDS011;54311;51.726;5.154;2023-05-29T02:22:05;23.25;;;6.60;;
67442;SDS011;54311;51.726;5.154;2023-05-29T02:24:30;19.00;;;6.28;;
67442;SDS011;54311;51.726;5.154;2023-05-29T02:26:56;19.45;;;6.03;;
67442;SDS011;54311;51.726;5.154;2023-05-29T02:29:21;18.88;;;6.43;;
67442;SDS011;54311;51.726;5.154;2023-05-29T02:31:46;23.08;;;6.85;;
67442;SDS011;54311;51.726;5.154;2023-05-29T02:34:12;22.38;;;7.05;;
67442;SDS011;54311;51.726;5.154;2023-05-29T02:36:37;25.80;;;7.70;;
67442;SDS011;54311;51.726;5.154;2023-05-29T02:39:03;19.17;;;6.22;;
67442;SDS011;54311;51.726;5.154;2023-05-29T02:41:30;23.02;;;5.90;;
67442;SDS011;54311;51.726;5.154;2023-05-29T02:43:55;21.38;;;7.22;;
67442;SDS011;54311;51.726;5.154;2023-05-29T02:46:20;20.70;;;6.53;;
67442;SDS011;54311;51.726;5.154;2023-05-29T02:48:46;15.57;;;6.32;;
67442;SDS011;54311;51.726;5.154;2023-05-29T02:51:12;22.08;;;6.32;;
67442;SDS011;54311;51.726;5.154;2023-05-29T02:53:37;29.60;;;7.95;;
67442;SDS011;54311;51.726;5.154;2023-05-29T02:56:03;22.60;;;6.38;;
67442;SDS011;54311;51.726;5.154;2023-05-29T02:58:29;25.45;;;6.63;;
67442;SDS011;54311;51.726;5.154;2023-05-29T03:00:54;29.90;;;8.50;;
67442;SDS011;54311;51.726;5.154;2023-05-29T03:03:19;20.40;;;7.00;;
67442;SDS011;54311;51.726;5.154;2023-05-29T03:05:45;25.33;;;7.43;;
67442;SDS011;54311;51.726;5.154;2023-05-29T03:08:11;28.60;;;5.97;;
67442;SDS011;54311;51.726;5.154;2023-05-29T03:10:37;16.40;;;5.97;;
67442;SDS011;54311;51.726;5.154;2023-05-29T03:13:03;20.90;;;6.68;;
67442;SDS011;54311;51.726;5.154;2023-05-29T03:15:28;23.20;;;7.05;;
67442;SDS011;54311;51.726;5.154;2023-05-29T03:17:54;24.23;;;7.63;;
67442;SDS011;54311;51.726;5.154;2023-05-29T03:20:20;23.10;;;7.20;;
67442;SDS011;54311;51.726;5.154;2023-05-29T03:22:45;25.17;;;7.53;;
67442;SDS011;54311;51.726;5.154;2023-05-29T03:25:11;15.60;;;6.15;;
67442;SDS011;54311;51.726;5.154;2023-05-29T03:27:36;20.00;;;6.05;;
67442;SDS011;54311;51.726;5.154;2023-05-29T03:30:02;19.58;;;6.00;;
67442;SDS011;54311;51.726;5.154;2023-05-29T03:32:28;20.15;;;5.57;;
67442;SDS011;54311;51.726;5.154;2023-05-29T03:34:53;17.95;;;6.55;;
67442;SDS011;54311;51.726;5.154;2023-05-29T03:37:18;32.10;;;6.45;;
67442;SDS011;54311;51.726;5.154;2023-05-29T03:39:44;23.50;;;6.53;;
67442;SDS011;54311;51.726;5.154;2023-05-29T03:42:09;21.25;;;5.93;;
67442;SDS011;54311;51.726;5.154;2023-05-29T03:44:34;20.35;;;5.85;;
67442;SDS011;54311;51.726;5.154;2023-05-29T03:47:00;24.23;;;5.72;;
67442;SDS011;54311;51.726;5.154;2023-05-29T03:49:25;19.65;;;6.15;;
67442;SDS011;54311;51.726;5.154;2023-05-29T03:51:50;21.52;;;5.97;;
67442;SDS011;54311;51.726;5.154;2023-05-29T03:54:16;22.80;;;6.32;;
67442;SDS011;54311;51.726;5.154;2023-05-29T03:56:41;24.08;;;5.90;;
67442;SDS011;54311;51.726;5.154;2023-05-29T03:59:07;22.67;;;6.70;;
67442;SDS011;54311;51.726;5.154;2023-05-29T04:01:32;22.85;;;6.28;;
67442;SDS011;54311;51.726;5.154;2023-05-29T04:03:58;23.45;;;6.47;;
67442;SDS011;54311;51.726;5.154;2023-05-29T04:06:23;28.25;;;6.53;;
67442;SDS011;54311;51.726;5.154;2023-05-29T04:08:49;18.80;;;6.10;;
67442;SDS011;54311;51.726;5.154;2023-05-29T04:11:15;21.35;;;5.68;;
67442;SDS011;54311;51.726;5.154;2023-05-29T04:13:40;20.23;;;6.93;;
67442;SDS011;54311;51.726;5.154;2023-05-29T04:16:06;22.63;;;6.57;;
67442;SDS011;54311;51.726;5.154;2023-05-29T04:18:31;17.95;;;6.57;;
67442;SDS011;54311;51.726;5.154;2023-05-29T04:20:57;15.60;;;5.72;;
67442;SDS011;54311;51.726;5.154;2023-05-29T04:23:22;22.40;;;6.65;;
67442;SDS011;54311;51.726;5.154;2023-05-29T04:25:48;19.77;;;6.00;;
67442;SDS011;54311;51.726;5.154;2023-05-29T04:28:16;19.08;;;6.07;;
67442;SDS011;54311;51.726;5.154;2023-05-29T04:30:42;22.20;;;6.50;;
67442;SDS011;54311;51.726;5.154;2023-05-29T04:33:07;24.90;;;6.43;;
67442;SDS011;54311;51.726;5.154;2023-05-29T04:35:34;20.15;;;5.70;;
67442;SDS011;54311;51.726;5.154;2023-05-29T04:38:00;20.63;;;6.43;;
67442;SDS011;54311;51.726;5.154;2023-05-29T04:40:26;21.20;;;6.63;;
67442;SDS011;54311;51.726;5.154;2023-05-29T04:42:51;20.17;;;6.63;;
67442;SDS011;54311;51.726;5.154;2023-05-29T04:45:19;17.13;;;5.68;;
67442;SDS011;54311;51.726;5.154;2023-05-29T04:47:45;20.65;;;6.20;;
67442;SDS011;54311;51.726;5.154;2023-05-29T04:50:12;22.42;;;5.97;;
67442;SDS011;54311;51.726;5.154;2023-05-29T04:52:38;20.80;;;6.07;;
67442;SDS011;54311;51.726;5.154;2023-05-29T04:55:04;16.08;;;5.63;;
67442;SDS011;54311;51.726;5.154;2023-05-29T04:57:30;23.15;;;6.10;;
67442;SDS011;54311;51.726;5.154;2023-05-29T04:59:55;23.67;;;6.05;;
67442;SDS011;54311;51.726;5.154;2023-05-29T05:02:21;19.98;;;6.22;;
67442;SDS011;54311;51.726;5.154;2023-05-29T05:04:46;21.48;;;6.93;;
67442;SDS011;54311;51.726;5.154;2023-05-29T05:07:12;26.67;;;5.88;;
67442;SDS011;54311;51.726;5.154;2023-05-29T05:09:38;21.85;;;5.82;;
67442;SDS011;54311;51.726;5.154;2023-05-29T05:12:03;25.20;;;5.80;;
67442;SDS011;54311;51.726;5.154;2023-05-29T05:14:28;21.35;;;5.40;;
67442;SDS011;54311;51.726;5.154;2023-05-29T05:16:54;25.15;;;6.72;;
67442;SDS011;54311;51.726;5.154;2023-05-29T05:19:19;19.73;;;5.97;;
67442;SDS011;54311;51.726;5.154;2023-05-29T05:21:45;28.60;;;6.18;;
67442;SDS011;54311;51.726;5.154;2023-05-29T05:24:10;13.88;;;5.38;;
67442;SDS011;54311;51.726;5.154;2023-05-29T05:26:35;24.88;;;6.63;;
67442;SDS011;54311;51.726;5.154;2023-05-29T05:29:01;25.83;;;6.38;;
67442;SDS011;54311;51.726;5.154;2023-05-29T05:31:26;18.52;;;6.03;;
67442;SDS011;54311;51.726;5.154;2023-05-29T05:33:52;20.75;;;5.13;;
67442;SDS011;54311;51.726;5.154;2023-05-29T05:36:17;16.75;;;5.28;;
67442;SDS011;54311;51.726;5.154;2023-05-29T05:38:43;23.63;;;6.35;;
67442;SDS011;54311;51.726;5.154;2023-05-29T05:41:08;22.35;;;5.47;;
67442;SDS011;54311;51.726;5.154;2023-05-29T05:43:34;19.05;;;5.68;;
67442;SDS011;54311;51.726;5.154;2023-05-29T05:45:59;22.20;;;6.15;;
67442;SDS011;54311;51.726;5.154;2023-05-29T05:48:25;25.20;;;7.30;;
67442;SDS011;54311;51.726;5.154;2023-05-29T05:50:50;25.17;;;6.03;;
67442;SDS011;54311;51.726;5.154;2023-05-29T05:53:15;12.82;;;5.35;;
67442;SDS011;54311;51.726;5.154;2023-05-29T05:55:42;19.98;;;6.00;;
67442;SDS011;54311;51.726;5.154;2023-05-29T05:58:07;13.80;;;5.25;;
67442;SDS011;54311;51.726;5.154;2023-05-29T06:00:33;19.10;;;5.60;;
67442;SDS011;54311;51.726;5.154;2023-05-29T06:02:58;16.67;;;4.80;;
67442;SDS011;54311;51.726;5.154;2023-05-29T06:05:25;22.33;;;6.05;;
67442;SDS011;54311;51.726;5.154;2023-05-29T06:07:50;18.92;;;5.60;;
67442;SDS011;54311;51.726;5.154;2023-05-29T06:10:16;18.42;;;5.80;;
67442;SDS011;54311;51.726;5.154;2023-05-29T06:12:41;22.52;;;5.35;;
67442;SDS011;54311;51.726;5.154;2023-05-29T06:15:06;22.52;;;5.03;;
67442;SDS011;54311;51.726;5.154;2023-05-29T06:17:32;17.85;;;5.43;;
67442;SDS011;54311;51.726;5.154;2023-05-29T06:19:58;16.30;;;5.50;;
67442;SDS011;54311;51.726;5.154;2023-05-29T06:22:23;16.08;;;4.55;;
67442;SDS011;54311;51.726;5.154;2023-05-29T06:24:48;20.85;;;5.53;;
67442;SDS011;54311;51.726;5.154;2023-05-29T06:27:14;16.48;;;5.43;;
67442;SDS011;54311;51.726;5.154;2023-05-29T06:29:39;16.17;;;4.95;;
67442;SDS011;54311;51.726;5.154;2023-05-29T06:32:05;17.83;;;6.10;;
67442;SDS011;54311;51.726;5.154;2023-05-29T06:34:31;19.80;;;5.40;;
67442;SDS011;54311;51.726;5.154;2023-05-29T06:36:56;16.52;;;5.22;;
67442;SDS011;54311;51.726;5.154;2023-05-29T06:39:21;21.88;;;5.38;;
67442;SDS011;54311;51.726;5.154;2023-05-29T06:41:47;18.50;;;4.90;;
67442;SDS011;54311;51.726;5.154;2023-05-29T06:44:12;17.90;;;5.38;;
67442;SDS011;54311;51.726;5.154;2023-05-29T06:46:37;18.35;;;4.82;;
67442;SDS011;54311;51.726;5.154;2023-05-29T06:49:03;17.13;;;4.70;;
67442;SDS011;54311;51.726;5.154;2023-05-29T06:51:28;17.15;;;5.07;;
67442;SDS011;54311;51.726;5.154;2023-05-29T06:53:54;21.98;;;5.53;;
67442;SDS011;54311;51.726;5.154;2023-05-29T06:56:20;16.90;;;5.35;;
67442;SDS011;54311;51.726;5.154;2023-05-29T06:58:46;23.83;;;5.25;;
67442;SDS011;54311;51.726;5.154;2023-05-29T07:01:11;21.92;;;5.45;;
67442;SDS011;54311;51.726;5.154;2023-05-29T07:03:36;18.25;;;5.10;;
67442;SDS011;54311;51.726;5.154;2023-05-29T07:06:02;15.13;;;4.90;;
67442;SDS011;54311;51.726;5.154;2023-05-29T07:08:28;20.33;;;5.10;;
67442;SDS011;54311;51.726;5.154;2023-05-29T07:10:54;22.80;;;5.80;;
67442;SDS011;54311;51.726;5.154;2023-05-29T07:13:20;15.98;;;5.38;;
67442;SDS011;54311;51.726;5.154;2023-05-29T07:15:45;14.30;;;4.90;;
67442;SDS011;54311;51.726;5.154;2023-05-29T07:18:11;14.95;;;4.93;;
67442;SDS011;54311;51.726;5.154;2023-05-29T07:20:36;13.93;;;5.95;;
67442;SDS011;54311;51.726;5.154;2023-05-29T07:23:02;11.05;;;4.68;;
67442;SDS011;54311;51.726;5.154;2023-05-29T07:25:28;21.35;;;5.13;;
67442;SDS011;54311;51.726;5.154;2023-05-29T07:27:54;19.27;;;4.70;;
67442;SDS011;54311;51.726;5.154;2023-05-29T07:30:19;15.45;;;5.30;;
67442;SDS011;54311;51.726;5.154;2023-05-29T07:32:44;19.30;;;4.68;;
67442;SDS011;54311;51.726;5.154;2023-05-29T07:35:10;20.35;;;5.32;;
67442;SDS011;54311;51.726;5.154;2023-05-29T07:37:35;20.55;;;4.82;;
67442;SDS011;54311;51.726;5.154;2023-05-29T07:40:01;14.00;;;4.10;;
67442;SDS011;54311;51.726;5.154;2023-05-29T07:42:30;16.42;;;5.00;;
67442;SDS011;54311;51.726;5.154;2023-05-29T07:44:57;19.85;;;4.78;;
67442;SDS011;54311;51.726;5.154;2023-05-29T07:47:22;24.35;;;4.88;;
67442;SDS011;54311;51.726;5.154;2023-05-29T07:49:47;18.73;;;4.63;;
67442;SDS011;54311;51.726;5.154;2023-05-29T07:52:13;20.75;;;4.40;;
67442;SDS011;54311;51.726;5.154;2023-05-29T07:54:38;16.33;;;4.68;;
67442;SDS011;54311;51.726;5.154;2023-05-29T07:57:04;13.65;;;4.82;;
67442;SDS011;54311;51.726;5.154;2023-05-29T07:59:34;16.50;;;5.25;;
67442;SDS011;54311;51.726;5.154;2023-05-29T08:02:00;13.55;;;4.82;;
67442;SDS011;54311;51.726;5.154;2023-05-29T08:04:27;14.85;;;4.78;;
67442;SDS011;54311;51.726;5.154;2023-05-29T08:06:53;13.70;;;4.72;;
67442;SDS011;54311;51.726;5.154;2023-05-29T08:09:18;13.07;;;4.97;;
67442;SDS011;54311;51.726;5.154;2023-05-29T08:11:43;15.73;;;5.18;;
67442;SDS011;54311;51.726;5.154;2023-05-29T08:14:11;13.32;;;4.68;;
67442;SDS011;54311;51.726;5.154;2023-05-29T08:16:37;11.98;;;4.78;;
67442;SDS011;54311;51.726;5.154;2023-05-29T08:19:02;16.15;;;4.15;;
67442;SDS011;54311;51.726;5.154;2023-05-29T08:21:29;24.60;;;4.88;;
67442;SDS011;54311;51.726;5.154;2023-05-29T08:23:54;17.50;;;4.65;;
67442;SDS011;54311;51.726;5.154;2023-05-29T08:26:20;20.13;;;4.72;;
67442;SDS011;54311;51.726;5.154;2023-05-29T08:28:46;10.13;;;4.50;;
67442;SDS011;54311;51.726;5.154;2023-05-29T08:31:11;13.25;;;4.65;;
67442;SDS011;54311;51.726;5.154;2023-05-29T08:33:37;17.08;;;5.45;;
67442;SDS011;54311;51.726;5.154;2023-05-29T08:36:02;15.95;;;4.50;;
67442;SDS011;54311;51.726;5.154;2023-05-29T08:38:28;14.32;;;4.28;;
67442;SDS011;54311;51.726;5.154;2023-05-29T08:40:54;14.98;;;4.57;;
67442;SDS011;54311;51.726;5.154;2023-05-29T08:43:22;18.08;;;5.78;;
67442;SDS011;54311;51.726;5.154;2023-05-29T08:45:47;14.15;;;5.38;;
67442;SDS011;54311;51.726;5.154;2023-05-29T08:48:20;14.55;;;4.13;;
67442;SDS011;54311;51.726;5.154;2023-05-29T08:50:48;12.07;;;4.50;;
67442;SDS011;54311;51.726;5.154;2023-05-29T08:53:13;13.80;;;4.25;;
67442;SDS011;54311;51.726;5.154;2023-05-29T08:55:40;15.38;;;5.28;;
67442;SDS011;54311;51.726;5.154;2023-05-29T08:58:05;14.57;;;4.65;;
67442;SDS011;54311;51.726;5.154;2023-05-29T09:00:32;15.77;;;4.57;;
67442;SDS011;54311;51.726;5.154;2023-05-29T09:02:57;8.80;;;4.22;;
67442;SDS011;54311;51.726;5.154;2023-05-29T09:05:24;10.52;;;4.32;;
67442;SDS011;54311;51.726;5.154;2023-05-29T09:07:51;10.73;;;3.90;;
67442;SDS011;54311;51.726;5.154;2023-05-29T09:10:17;11.07;;;4.45;;
67442;SDS011;54311;51.726;5.154;2023-05-29T09:12:42;14.30;;;4.25;;
67442;SDS011;54311;51.726;5.154;2023-05-29T09:15:16;12.77;;;4.68;;
67442;SDS011;54311;51.726;5.154;2023-05-29T09:17:51;10.15;;;3.92;;
67442;SDS011;54311;51.726;5.154;2023-05-29T09:20:17;15.95;;;5.70;;
67442;SDS011;54311;51.726;5.154;2023-05-29T09:22:52;18.92;;;4.72;;
67442;SDS011;54311;51.726;5.154;2023-05-29T09:25:22;12.98;;;4.60;;
67442;SDS011;54311;51.726;5.154;2023-05-29T09:27:50;23.52;;;4.93;;
67442;SDS011;54311;51.726;5.154;2023-05-29T09:30:36;13.30;;;4.32;;
67442;SDS011;54311;51.726;5.154;2023-05-29T09:33:03;11.68;;;4.20;;
67442;SDS011;54311;51.726;5.154;2023-05-29T09:35:36;12.35;;;4.45;;
67442;SDS011;54311;51.726;5.154;2023-05-29T09:38:05;16.05;;;4.75;;
67442;SDS011;54311;51.726;5.154;2023-05-29T09:40:31;15.20;;;4.65;;
67442;SDS011;54311;51.726;5.154;2023-05-29T09:43:01;13.55;;;4.53;;
67442;SDS011;54311;51.726;5.154;2023-05-29T09:45:29;16.95;;;4.72;;
67442;SDS011;54311;51.726;5.154;2023-05-29T09:47:55;24.30;;;5.00;;
67442;SDS011;54311;51.726;5.154;2023-05-29T09:50:21;14.90;;;4.60;;
67442;SDS011;54311;51.726;5.154;2023-05-29T09:52:50;12.90;;;4.20;;
67442;SDS011;54311;51.726;5.154;2023-05-29T09:55:17;10.63;;;4.80;;
67442;SDS011;54311;51.726;5.154;2023-05-29T09:57:46;12.77;;;4.07;;
67442;SDS011;54311;51.726;5.154;2023-05-29T10:00:12;15.98;;;4.93;;
67442;SDS011;54311;51.726;5.154;2023-05-29T10:02:38;13.02;;;4.57;;
67442;SDS011;54311;51.726;5.154;2023-05-29T10:05:05;19.02;;;4.90;;
67442;SDS011;54311;51.726;5.154;2023-05-29T10:07:31;14.60;;;4.35;;
67442;SDS011;54311;51.726;5.154;2023-05-29T10:09:59;13.48;;;4.28;;
67442;SDS011;54311;51.726;5.154;2023-05-29T10:12:26;12.13;;;4.47;;
67442;SDS011;54311;51.726;5.154;2023-05-29T10:14:54;13.60;;;5.20;;
67442;SDS011;54311;51.726;5.154;2023-05-29T10:17:23;11.45;;;4.13;;
67442;SDS011;54311;51.726;5.154;2023-05-29T10:19:52;13.10;;;4.18;;
67442;SDS011;54311;51.726;5.154;2023-05-29T10:22:19;11.07;;;3.70;;
67442;SDS011;54311;51.726;5.154;2023-05-29T10:24:46;10.60;;;3.92;;
67442;SDS011;54311;51.726;5.154;2023-05-29T10:27:13;13.13;;;4.68;;
67442;SDS011;54311;51.726;5.154;2023-05-29T10:35:18;14.23;;;4.20;;
67442;SDS011;54311;51.726;5.154;2023-05-29T10:40:27;11.18;;;4.15;;
67442;SDS011;54311;51.726;5.154;2023-05-29T10:42:53;10.00;;;4.45;;
67442;SDS011;54311;51.726;5.154;2023-05-29T10:47:54;11.55;;;4.13;;
67442;SDS011;54311;51.726;5.154;2023-05-29T10:50:38;14.00;;;4.10;;
67442;SDS011;54311;51.726;5.154;2023-05-29T10:53:06;11.45;;;4.05;;
67442;SDS011;54311;51.726;5.154;2023-05-29T10:55:35;12.15;;;3.83;;
67442;SDS011;54311;51.726;5.154;2023-05-29T10:58:20;13.52;;;3.65;;
67442;SDS011;54311;51.726;5.154;2023-05-29T11:00:50;15.65;;;4.00;;
67442;SDS011;54311;51.726;5.154;2023-05-29T11:03:22;15.60;;;4.43;;
67442;SDS011;54311;51.726;5.154;2023-05-29T11:08:46;8.77;;;3.45;;
67442;SDS011;54311;51.726;5.154;2023-05-29T11:11:13;8.10;;;3.60;;
67442;SDS011;54311;51.726;5.154;2023-05-29T11:13:56;12.45;;;3.92;;
67442;SDS011;54311;51.726;5.154;2023-05-29T11:18:50;9.30;;;4.30;;
67442;SDS011;54311;51.726;5.154;2023-05-29T11:21:30;14.23;;;4.68;;
67442;SDS011;54311;51.726;5.154;2023-05-29T11:23:57;13.82;;;4.13;;
67442;SDS011;54311;51.726;5.154;2023-05-29T11:26:25;14.32;;;3.63;;
67442;SDS011;54311;51.726;5.154;2023-05-29T11:28:51;15.35;;;4.53;;
67442;SDS011;54311;51.726;5.154;2023-05-29T11:31:17;9.55;;;3.97;;
67442;SDS011;54311;51.726;5.154;2023-05-29T11:33:47;15.55;;;5.00;;
67442;SDS011;54311;51.726;5.154;2023-05-29T11:36:14;16.52;;;4.40;;
67442;SDS011;54311;51.726;5.154;2023-05-29T11:38:40;18.02;;;4.40;;
67442;SDS011;54311;51.726;5.154;2023-05-29T11:41:05;13.90;;;3.83;;
67442;SDS011;54311;51.726;5.154;2023-05-29T11:43:30;15.63;;;3.88;;
67442;SDS011;54311;51.726;5.154;2023-05-29T11:45:56;16.55;;;4.03;;
67442;SDS011;54311;51.726;5.154;2023-05-29T11:48:21;15.63;;;4.10;;
67442;SDS011;54311;51.726;5.154;2023-05-29T11:50:48;11.00;;;4.28;;
67442;SDS011;54311;51.726;5.154;2023-05-29T11:53:13;12.13;;;4.15;;
67442;SDS011;54311;51.726;5.154;2023-05-29T11:55:39;14.18;;;4.47;;
67442;SDS011;54311;51.726;5.154;2023-05-29T11:58:05;11.50;;;4.13;;
67442;SDS011;54311;51.726;5.154;2023-05-29T12:00:34;11.48;;;4.22;;
67442;SDS011;54311;51.726;5.154;2023-05-29T12:03:01;11.43;;;4.13;;
67442;SDS011;54311;51.726;5.154;2023-05-29T12:05:29;12.20;;;4.57;;
67442;SDS011;54311;51.726;5.154;2023-05-29T12:07:58;16.70;;;4.38;;
67442;SDS011;54311;51.726;5.154;2023-05-29T12:10:27;15.20;;;4.85;;
67442;SDS011;54311;51.726;5.154;2023-05-29T12:15:19;13.45;;;5.68;;
67442;SDS011;54311;51.726;5.154;2023-05-29T12:17:46;20.65;;;4.60;;
67442;SDS011;54311;51.726;5.154;2023-05-29T12:20:12;26.63;;;5.30;;
67442;SDS011;54311;51.726;5.154;2023-05-29T12:22:39;21.23;;;4.97;;
67442;SDS011;54311;51.726;5.154;2023-05-29T12:25:15;13.18;;;4.78;;
67442;SDS011;54311;51.726;5.154;2023-05-29T12:27:42;10.18;;;4.32;;
67442;SDS011;54311;51.726;5.154;2023-05-29T12:30:13;22.00;;;5.60;;
67442;SDS011;54311;51.726;5.154;2023-05-29T12:32:40;15.25;;;4.95;;
67442;SDS011;54311;51.726;5.154;2023-05-29T12:35:14;14.60;;;5.05;;
67442;SDS011;54311;51.726;5.154;2023-05-29T12:37:46;14.60;;;4.68;;
67442;SDS011;54311;51.726;5.154;2023-05-29T12:40:19;18.95;;;4.18;;
67442;SDS011;54311;51.726;5.154;2023-05-29T12:42:49;15.57;;;5.28;;
67442;SDS011;54311;51.726;5.154;2023-05-29T12:45:18;14.52;;;4.80;;
67442;SDS011;54311;51.726;5.154;2023-05-29T12:47:50;9.13;;;4.28;;
67442;SDS011;54311;51.726;5.154;2023-05-29T12:50:19;12.93;;;4.55;;
67442;SDS011;54311;51.726;5.154;2023-05-29T12:52:52;8.80;;;4.22;;
67442;SDS011;54311;51.726;5.154;2023-05-29T12:55:21;14.98;;;4.20;;
67442;SDS011;54311;51.726;5.154;2023-05-29T12:57:46;15.73;;;5.15;;
67442;SDS011;54311;51.726;5.154;2023-05-29T13:00:12;11.80;;;4.50;;
67442;SDS011;54311;51.726;5.154;2023-05-29T13:02:38;13.38;;;4.45;;
67442;SDS011;54311;51.726;5.154;2023-05-29T13:05:04;11.07;;;4.28;;
67442;SDS011;54311;51.726;5.154;2023-05-29T13:07:30;12.57;;;4.60;;
67442;SDS011;54311;51.726;5.154;2023-05-29T13:09:56;17.67;;;4.88;;
67442;SDS011;54311;51.726;5.154;2023-05-29T13:12:21;16.88;;;4.60;;
67442;SDS011;54311;51.726;5.154;2023-05-29T13:14:46;13.88;;;4.70;;
67442;SDS011;54311;51.726;5.154;2023-05-29T13:17:12;19.70;;;4.90;;
67442;SDS011;54311;51.726;5.154;2023-05-29T13:19:37;12.13;;;4.20;;
67442;SDS011;54311;51.726;5.154;2023-05-29T13:22:02;12.90;;;4.30;;
67442;SDS011;54311;51.726;5.154;2023-05-29T13:24:28;10.27;;;4.53;;
67442;SDS011;54311;51.726;5.154;2023-05-29T13:26:53;14.13;;;4.50;;
67442;SDS011;54311;51.726;5.154;2023-05-29T13:29:18;18.23;;;5.07;;
67442;SDS011;54311;51.726;5.154;2023-05-29T13:31:44;13.52;;;5.00;;
67442;SDS011;54311;51.726;5.154;2023-05-29T13:34:10;22.42;;;4.93;;
67442;SDS011;54311;51.726;5.154;2023-05-29T13:36:35;15.75;;;4.60;;
67442;SDS011;54311;51.726;5.154;2023-05-29T13:39:01;14.00;;;4.53;;
67442;SDS011;54311;51.726;5.154;2023-05-29T13:41:26;17.65;;;4.97;;
67442;SDS011;54311;51.726;5.154;2023-05-29T13:43:51;9.68;;;4.38;;
67442;SDS011;54311;51.726;5.154;2023-05-29T13:46:17;11.90;;;4.18;;
67442;SDS011;54311;51.726;5.154;2023-05-29T13:48:42;13.27;;;4.95;;
67442;SDS011;54311;51.726;5.154;2023-05-29T13:51:08;15.38;;;4.90;;
67442;SDS011;54311;51.726;5.154;2023-05-29T13:53:33;26.58;;;6.38;;
67442;SDS011;54311;51.726;5.154;2023-05-29T13:55:58;9.30;;;4.55;;
67442;SDS011;54311;51.726;5.154;2023-05-29T13:58:24;19.00;;;5.13;;
67442;SDS011;54311;51.726;5.154;2023-05-29T14:00:49;14.80;;;4.93;;
67442;SDS011;54311;51.726;5.154;2023-05-29T14:03:15;16.50;;;5.22;;
67442;SDS011;54311;51.726;5.154;2023-05-29T14:05:40;19.52;;;5.15;;
67442;SDS011;54311;51.726;5.154;2023-05-29T14:08:05;17.25;;;4.78;;
67442;SDS011;54311;51.726;5.154;2023-05-29T14:10:31;18.55;;;4.97;;
67442;SDS011;54311;51.726;5.154;2023-05-29T14:12:56;17.13;;;5.45;;
67442;SDS011;54311;51.726;5.154;2023-05-29T14:15:22;15.02;;;4.72;;
67442;SDS011;54311;51.726;5.154;2023-05-29T14:17:47;17.25;;;5.35;;
67442;SDS011;54311;51.726;5.154;2023-05-29T14:20:13;18.08;;;5.32;;
67442;SDS011;54311;51.726;5.154;2023-05-29T14:22:39;13.07;;;4.60;;
67442;SDS011;54311;51.726;5.154;2023-05-29T14:25:04;20.15;;;5.18;;
67442;SDS011;54311;51.726;5.154;2023-05-29T14:27:30;14.50;;;5.22;;
67442;SDS011;54311;51.726;5.154;2023-05-29T14:29:55;16.30;;;5.13;;
67442;SDS011;54311;51.726;5.154;2023-05-29T14:32:21;15.18;;;4.65;;
67442;SDS011;54311;51.726;5.154;2023-05-29T14:34:46;28.30;;;4.90;;
67442;SDS011;54311;51.726;5.154;2023-05-29T14:37:11;42.38;;;5.57;;
67442;SDS011;54311;51.726;5.154;2023-05-29T14:39:37;16.20;;;4.40;;
67442;SDS011;54311;51.726;5.154;2023-05-29T14:42:02;15.10;;;4.90;;
67442;SDS011;54311;51.726;5.154;2023-05-29T14:44:28;36.25;;;5.85;;
67442;SDS011;54311;51.726;5.154;2023-05-29T14:46:53;12.20;;;4.65;;
67442;SDS011;54311;51.726;5.154;2023-05-29T14:49:18;15.60;;;4.65;;
67442;SDS011;54311;51.726;5.154;2023-05-29T14:51:44;12.93;;;4.68;;
67442;SDS011;54311;51.726;5.154;2023-05-29T14:54:10;18.63;;;5.65;;
67442;SDS011;54311;51.726;5.154;2023-05-29T14:56:36;12.75;;;4.72;;
67442;SDS011;54311;51.726;5.154;2023-05-29T14:59:02;12.07;;;4.93;;
67442;SDS011;54311;51.726;5.154;2023-05-29T15:01:28;21.17;;;5.10;;